Weather at King Island Airport

Public forecast

Using degrees Celsius for public forecast. Weather courtesy of forecast.io.

Closest aviation weather report (METAR) to King Island Airport

Closest report is Avalon Airport, 113.8 nm (210.7 km) NNE. Retrieved 2021/11/28 17:00 UTC (34 minutes ago):

YMAV 281700Z AUTO 28003KT 9999 // NCD 09/08 Q1018

Closest aviation forecast (TAF) to King Island Airport

Forecast is more than 12 hours old.

Closest forecast is Avalon Airport, 113.8 nm (210.7 km) NNE. Retrieved 2021-11-28 00:00 UTC (18 hours ago):

TAF YMAV 272318Z 2800/2900 11012KT CAVOK FM280300 13010KT CAVOK FM280900 17007KT CAVOK FM281200 10006KT CAVOK FM281600 12007KT 9999 SCT010 BECMG 2822/2900 VRB03KT CAVOK